TimeCDT,TemperatureF,Dew PointF,Humidity,Sea Level PressureIn,VisibilityMPH,Wind Direction,Wind SpeedMPH,Gust SpeedMPH,PrecipitationIn,Events,Conditions,WindDirDegrees,DateUTC
12:58 AM,45.1,44.8,99,30.06,10.0,Calm,Calm,-,N/A,,Clear,0,2013-05-11 05:58:00
1:33 AM,44.6,44.6,100,30.04,5.0,Calm,Calm,-,N/A,,Clear,0,2013-05-11 06:33:00
1:58 AM,45.1,45.1,100,30.04,9.0,SSW,2.3,-,N/A,,Clear,200,2013-05-11 06:58:00
2:58 AM,50.7,50.5,99,30.04,10.0,WNW,10.4,-,N/A,,Mostly Cloudy,300,2013-05-11 07:58:00
3:58 AM,56.3,46.2,69,30.08,10.0,North,18.4,29.9,N/A,,Clear,350,2013-05-11 08:58:00
4:58 AM,54.7,35.1,48,30.13,10.0,North,13.8,20.7,N/A,,Clear,360,2013-05-11 09:58:00
5:58 AM,51.1,30.6,45,30.17,10.0,North,9.2,-,N/A,,Clear,350,2013-05-11 10:58:00
6:58 AM,50.0,33.3,53,30.19,10.0,NNW,8.1,-,N/A,,Clear,340,2013-05-11 11:58:00
7:58 AM,52.7,31.5,44,30.22,10.0,North,11.5,-,N/A,,Clear,350,2013-05-11 12:58:00
8:58 AM,54.5,30.4,40,30.25,10.0,NNW,15.0,21.9,N/A,,Clear,340,2013-05-11 13:58:00
9:58 AM,56.7,29.5,35,30.25,10.0,NNW,17.3,31.1,N/A,,Clear,340,2013-05-11 14:58:00
10:58 AM,58.6,28.0,31,30.26,10.0,North,18.4,28.8,N/A,,Clear,350,2013-05-11 15:58:00
11:26 AM,59.0,28.4,31,30.24,10.0,NW,24.2,28.8,N/A,,Clear,320,2013-05-11 16:26:00
11:58 AM,59.2,28.8,31,30.27,10.0,North,21.9,29.9,N/A,,Clear,350,2013-05-11 16:58:00
12:58 PM,59.7,27.3,29,30.27,10.0,NW,23.0,32.2,N/A,,Clear,320,2013-05-11 17:58:00
1:02 PM,59.0,26.6,29,30.25,10.0,NW,18.4,32.2,N/A,,Clear,310,2013-05-11 18:02:00
1:58 PM,59.7,28.2,30,30.27,10.0,NNW,19.6,31.1,N/A,,Clear,330,2013-05-11 18:58:00
2:15 PM,60.8,28.4,29,30.25,10.0,North,16.1,28.8,N/A,,Clear,350,2013-05-11 19:15:00
2:58 PM,61.0,28.4,29,30.27,10.0,NNW,16.1,28.8,N/A,,Clear,330,2013-05-11 19:58:00
3:55 PM,60.8,26.6,27,30.24,10.0,NW,20.7,27.6,N/A,,Clear,320,2013-05-11 20:55:00
3:58 PM,60.6,27.7,29,30.25,10.0,NW,20.7,27.6,N/A,,Clear,310,2013-05-11 20:58:00
4:58 PM,60.3,25.7,27,30.25,10.0,NNW,13.8,24.2,N/A,,Clear,330,2013-05-11 21:58:00
5:58 PM,59.2,23.5,25,30.26,10.0,NW,18.4,26.5,N/A,,Clear,320,2013-05-11 22:58:00
6:58 PM,57.7,23.5,27,30.25,10.0,North,12.7,23.0,N/A,,Clear,350,2013-05-11 23:58:00
7:58 PM,55.6,22.3,27,30.26,10.0,NNW,11.5,-,N/A,,Clear,330,2013-05-12 00:58:00
8:58 PM,52.3,22.3,31,30.26,10.0,NNW,9.2,-,N/A,,Clear,340,2013-05-12 01:58:00
9:58 PM,47.3,23.7,40,30.27,10.0,NNW,4.6,-,N/A,,Clear,330,2013-05-12 02:58:00
10:58 PM,40.1,27.7,61,30.27,10.0,WNW,5.8,-,N/A,,Clear,290,2013-05-12 03:58:00
11:58 PM,37.9,29.3,71,30.28,10.0,NW,3.5,-,N/A,,Clear,320,2013-05-12 04:58:00